Time;durP1;ratioP1;P1;durP2;ratioP2;P2;SDS_P1;SDS_P2;PMS_P1;PMS_P2;Temp;Humidity;BMP_temperature;BMP_pressure;BME280_temperature;BME280_humidity;BME280_pressure;Samples;Min_cycle;Max_cycle;Signal;HPM_P1;HPM_P2
2024/01/23 00:00:14;;;;;;;22.38;3.35;;;6.20;99.90;;;4.81;100.00;100341.72;4901115;28;20090;-83
2024/01/23 00:02:42;;;;;;;25.60;3.53;;;6.30;99.90;;;4.84;100.00;100341.66;4916209;28;20126;-83
2024/01/23 00:05:14;;;;;;;25.17;3.20;;;6.30;99.90;;;4.85;100.00;100334.66;4935706;28;20019;-83
2024/01/23 00:07:43;;;;;;;30.50;3.75;;;6.30;99.90;;;4.84;100.00;100349.47;4932190;28;20575;-84
2024/01/23 00:10:25;;;;;;;20.88;3.83;;;6.30;99.90;;;4.85;100.00;100343.34;4906140;28;20035;-83
2024/01/23 00:13:02;;;;;;;30.33;3.00;;;;;;;4.79;100.00;100334.84;4920657;28;20038;-83
2024/01/23 00:15:40;;;;;;;23.48;2.75;;;6.20;99.90;;;4.77;100.00;100332.28;4921732;23;20065;-82
2024/01/23 00:18:07;;;;;;;28.20;3.03;;;6.30;99.90;;;4.79;100.00;100333.09;4861486;28;20043;-83
2024/01/23 00:20:33;;;;;;;34.50;3.25;;;6.30;99.90;;;4.84;100.00;100348.63;4862991;28;20022;-84
2024/01/23 00:23:24;;;;;;;27.27;3.28;;;6.30;99.90;;;4.87;100.00;100353.75;4888963;28;20047;-84
2024/01/23 00:25:51;;;;;;;30.13;3.53;;;6.30;99.90;;;4.90;100.00;100349.31;4835221;29;20036;-82
2024/01/23 00:28:17;;;;;;;37.15;3.58;;;6.40;99.90;;;4.97;100.00;100354.31;4808121;29;20040;-83
2024/01/23 00:30:53;;;;;;;35.72;4.60;;;6.40;99.90;;;5.01;100.00;100362.03;4816377;29;20073;-82
2024/01/23 00:33:18;;;;;;;25.23;3.15;;;6.40;99.90;;;5.02;100.00;100357.66;4819765;29;20080;-83
2024/01/23 00:35:44;;;;;;;15.65;3.92;;;6.40;99.90;;;5.00;99.79;100354.25;4890192;23;20047;-82
2024/01/23 00:38:10;;;;;;;22.15;3.13;;;6.40;99.90;;;5.01;99.78;100367.25;4869640;29;20450;-84
2024/01/23 00:40:43;;;;;;;16.35;2.38;;;6.70;99.90;;;5.05;99.64;100365.38;4865726;29;20055;-84
2024/01/23 00:43:12;;;;;;;24.20;3.05;;;;;;;5.04;99.29;100380.19;4868749;29;20048;-83
2024/01/23 00:45:46;;;;;;;25.77;3.58;;;6.50;99.90;;;5.02;99.01;100378.53;4906249;28;20084;-82
2024/01/23 00:48:14;;;;;;;18.77;2.92;;;;;;;4.98;99.40;100375.16;4818130;29;20508;-84
2024/01/23 00:51:06;;;;;;;19.20;4.03;;;6.40;99.90;;;5.01;99.23;100375.09;4877274;29;21132;-83
2024/01/23 00:53:35;;;;;;;21.65;3.53;;;6.40;99.90;;;4.93;99.25;100382.28;4871274;29;20048;-83
2024/01/23 00:56:10;;;;;;;19.08;2.88;;;6.40;99.90;;;4.92;99.77;100388.38;4882219;23;20060;-84
2024/01/23 00:58:36;;;;;;;28.98;3.50;;;6.40;99.90;;;4.92;99.50;100385.75;4895167;28;20039;-82
2024/01/23 01:01:04;;;;;;;29.05;2.88;;;6.40;99.90;;;4.89;100.00;100380.66;4888689;28;20099;-83
2024/01/23 01:03:38;;;;;;;21.45;2.78;;;6.40;99.90;;;4.89;99.99;100391.06;4885804;28;20049;-84
2024/01/23 01:06:04;;;;;;;24.17;2.47;;;6.40;99.90;;;4.88;99.65;100390.22;4907882;28;20043;-83
2024/01/23 01:08:30;;;;;;;30.58;3.38;;;6.30;99.90;;;4.88;99.60;100386.75;4898386;29;20043;-83
2024/01/23 01:10:56;;;;;;;20.02;2.72;;;6.30;99.90;;;4.81;99.93;100382.59;4879060;28;20112;-82
2024/01/23 01:13:45;;;;;;;24.52;3.20;;;;;;;4.77;99.63;100387.03;4854346;28;20044;-83
2024/01/23 01:16:11;;;;;;;25.98;2.63;;;6.20;99.90;;;4.70;99.67;100378.53;4882371;28;20839;-83
2024/01/23 01:18:39;;;;;;;27.50;3.20;;;6.20;99.90;;;4.72;99.64;100386.34;4901640;29;20040;-82
2024/01/23 01:21:07;;;;;;;17.17;2.33;;;6.20;99.90;;;4.68;99.52;100387.31;4854344;28;20031;-82
2024/01/23 01:23:40;;;;;;;21.33;2.70;;;6.10;99.90;;;4.68;99.50;100379.50;4863539;29;20558;-83
2024/01/23 01:26:06;;;;;;;23.33;2.80;;;;;;;4.62;99.71;100383.13;4850673;29;20386;-83
2024/01/23 01:28:32;;;;;;;31.75;3.50;;;6.00;99.90;;;4.55;99.84;100375.50;4898412;28;20054;-83
2024/01/23 01:30:58;;;;;;;23.75;3.28;;;6.00;99.90;;;4.56;100.00;100379.81;4906272;28;20039;-83
2024/01/23 01:33:34;;;;;;;21.80;2.63;;;6.00;99.90;;;4.54;100.00;100390.31;4898150;28;20046;-81
2024/01/23 01:36:00;;;;;;;26.70;2.95;;;6.00;99.90;;;4.53;100.00;100375.53;4884411;28;20646;-82
2024/01/23 01:38:26;;;;;;;28.48;3.50;;;6.00;99.90;;;4.50;100.00;100375.66;4876479;29;20040;-83
2024/01/23 01:40:58;;;;;;;26.50;3.25;;;6.00;99.90;;;4.57;100.00;100378.94;4881106;29;20032;-82
2024/01/23 01:43:30;;;;;;;28.92;2.75;;;6.00;99.90;;;4.47;100.00;100363.56;4858166;29;20038;-82
2024/01/23 01:46:23;;;;;;;24.48;2.78;;;6.00;99.90;;;4.42;100.00;100359.34;4853967;28;20427;-82
2024/01/23 01:48:49;;;;;;;13.07;1.73;;;5.90;99.90;;;4.45;100.00;100364.47;4904356;28;20058;-83
2024/01/23 01:51:27;;;;;;;21.17;3.00;;;6.00;99.90;;;4.49;100.00;100366.09;4928484;28;20039;-83
2024/01/23 01:53:53;;;;;;;23.02;3.08;;;;;;;4.52;100.00;100366.03;4837799;29;20308;-83
2024/01/23 01:56:26;;;;;;;24.83;3.60;;;6.00;99.90;;;4.53;100.00;100367.72;4845408;28;20088;-83
2024/01/23 01:58:57;;;;;;;23.23;2.97;;;6.00;99.90;;;4.56;100.00;100365.06;4896999;29;20042;-83
2024/01/23 02:01:33;;;;;;;21.92;3.17;;;6.00;99.90;;;4.53;100.00;100365.13;4872512;29;20032;-84
2024/01/23 02:04:01;;;;;;;30.23;3.15;;;6.00;99.90;;;4.54;100.00;100369.44;4881881;29;20221;-83
2024/01/23 02:06:36;;;;;;;24.00;3.00;;;6.00;99.90;;;4.55;100.00;100370.28;4848395;29;20036;-81
2024/01/23 02:09:03;;;;;;;22.80;2.33;;;6.00;99.90;;;4.48;100.00;100353.97;4895323;29;20108;-83
2024/01/23 02:11:38;;;;;;;16.65;3.08;;;6.00;99.90;;;4.46;100.00;100359.22;4881380;29;20118;-83
2024/01/23 02:14:03;;;;;;;24.23;3.13;;;5.90;99.90;;;4.46;100.00;100363.59;4845122;28;20047;-83
2024/01/23 02:16:34;;;;;;;15.88;2.40;;;6.00;99.90;;;4.42;100.00;100357.59;4880177;29;20099;-81
2024/01/23 02:19:05;;;;;;;22.52;3.05;;;6.00;99.90;;;4.47;100.00;100347.91;4946589;28;20035;-83
2024/01/23 02:21:33;;;;;;;22.98;2.78;;;5.90;99.90;;;4.47;100.00;100352.25;4935973;28;20043;-83
2024/01/23 02:26:49;;;;;;;26.67;2.50;;;6.00;99.90;;;4.45;100.00;100354.91;4880062;29;20118;-81
2024/01/23 02:29:16;;;;;;;18.02;2.58;;;6.00;99.90;;;4.54;100.00;100366.00;4887779;28;20439;-82
2024/01/23 02:31:44;;;;;;;18.77;2.63;;;6.00;99.90;;;4.57;100.00;100368.50;4920207;28;20463;-83
2024/01/23 02:34:10;;;;;;;23.88;3.30;;;6.00;99.90;;;4.55;100.00;100360.72;4900174;28;20689;-84
2024/01/23 02:36:43;;;;;;;11.98;1.92;;;6.00;99.90;;;4.49;100.00;100361.75;4894385;28;20035;-82
2024/01/23 02:39:14;;;;;;;16.63;2.30;;;6.00;99.90;;;4.48;100.00;100354.81;4912505;28;20043;-83
2024/01/23 02:41:47;;;;;;;26.23;3.05;;;;;;;4.52;100.00;100359.06;4926421;28;20039;-83
2024/01/23 02:44:12;;;;;;;26.52;3.40;;;6.00;99.90;;;4.51;100.00;100370.41;4868962;29;20054;-83
2024/01/23 02:47:24;;;;;;;26.98;2.88;;;6.00;99.90;;;4.53;100.00;100372.94;4912837;28;20035;-83
2024/01/23 02:49:52;;;;;;;17.67;2.17;;;6.00;99.90;;;4.47;100.00;100358.34;4820493;29;20069;-84
2024/01/23 02:52:18;;;;;;;24.85;2.65;;;6.00;99.90;;;4.44;100.00;100355.78;4790757;29;20041;-83
2024/01/23 02:54:53;;;;;;;23.77;3.35;;;6.00;99.90;;;4.43;100.00;100364.53;4802598;29;20048;-83
2024/01/23 02:57:21;;;;;;;24.20;2.85;;;6.00;99.90;;;4.46;100.00;100371.41;4848581;29;20051;-84
2024/01/23 02:59:56;;;;;;;25.38;3.05;;;5.90;99.90;;;4.44;100.00;100368.81;4807427;29;20127;-83
2024/01/23 03:02:25;;;;;;;26.25;2.78;;;5.90;99.90;;;4.42;100.00;100361.94;4849035;29;20093;-83
2024/01/23 03:05:02;;;;;;;13.15;1.80;;;5.90;99.90;;;4.44;100.00;100374.03;4791036;29;20120;-83
2024/01/23 03:07:30;;;;;;;26.42;3.10;;;5.90;99.90;;;4.40;100.00;100377.63;4826075;29;20103;-83
2024/01/23 03:10:07;;;;;;;23.75;2.35;;;5.90;99.90;;;4.39;100.00;100378.53;4813343;29;20416;-83
2024/01/23 03:12:32;;;;;;;22.58;2.75;;;5.90;99.90;;;4.38;100.00;100375.97;4833936;29;20048;-83
2024/01/23 03:15:07;;;;;;;16.55;2.70;;;5.90;99.90;;;4.44;100.00;100386.22;4812412;29;20032;-83
2024/01/23 03:17:35;;;;;;;17.95;2.22;;;5.90;99.90;;;4.45;100.00;100391.41;4804092;29;20559;-83
2024/01/23 03:20:10;;;;;;;25.00;2.72;;;5.90;99.90;;;4.45;100.00;100390.53;4827439;29;20032;-80
2024/01/23 03:22:36;;;;;;;17.88;3.00;;;6.00;99.90;;;4.47;100.00;100402.66;4810150;29;20041;-82
2024/01/23 03:25:05;;;;;;;21.60;3.15;;;6.00;99.90;;;4.42;100.00;100396.69;4836463;29;20057;-83
2024/01/23 03:27:38;;;;;;;27.45;4.03;;;5.90;99.90;;;4.46;100.00;100403.53;4840677;29;20704;-83
2024/01/23 03:30:05;;;;;;;17.50;2.40;;;;;;;4.48;100.00;100417.38;4909170;28;20044;-84
2024/01/23 03:32:33;;;;;;;27.08;3.08;;;6.00;99.90;;;4.48;100.00;100411.34;4878073;28;20200;-84
2024/01/23 03:35:08;;;;;;;20.73;2.42;;;6.00;99.90;;;4.51;100.00;100422.53;4872377;28;20047;-84
2024/01/23 03:37:34;;;;;;;22.55;3.33;;;6.00;99.90;;;4.55;100.00;100418.09;4859491;28;20122;-83
2024/01/23 03:40:00;;;;;;;8.90;1.90;;;6.00;99.90;;;4.50;100.00;100419.97;4874879;29;20047;-83
2024/01/23 03:42:26;;;;;;;17.30;2.75;;;6.00;99.90;;;4.56;100.00;100418.94;4850618;29;20117;-82
2024/01/23 03:47:44;;;;;;;19.35;2.40;;;6.00;99.90;;;4.47;100.00;100427.84;4832465;28;20032;-83
2024/01/23 03:50:10;;;;;;;19.13;2.47;;;6.00;99.90;;;4.43;100.00;100421.03;4812798;29;20119;-82
2024/01/23 03:52:42;;;;;;;12.02;2.30;;;5.90;99.90;;;4.39;100.00;100427.22;4903781;28;20041;-82
2024/01/23 03:55:08;;;;;;;13.75;1.60;;;5.90;99.90;;;4.38;100.00;100431.56;4874443;28;20047;-83
2024/01/23 03:57:34;;;;;;;12.35;1.52;;;5.90;99.90;;;4.39;100.00;100443.72;4840824;28;20039;-81
2024/01/23 03:59:59;;;;;;;13.40;1.80;;;5.80;99.90;;;4.31;100.00;100430.84;4846755;29;20089;-82
2024/01/23 04:02:26;;;;;;;10.50;1.92;;;5.90;99.90;;;4.31;100.00;100443.03;4866598;29;20730;-83
2024/01/23 04:04:58;;;;;;;14.50;1.70;;;5.80;99.90;;;4.30;100.00;100444.81;4893838;29;20098;-83
2024/01/23 04:07:23;;;;;;;13.93;1.95;;;5.80;99.90;;;4.23;100.00;100443.25;4891633;28;20046;-81
2024/01/23 04:09:52;;;;;;;21.33;2.00;;;5.70;99.90;;;4.25;100.00;100443.19;4938556;28;20027;-83
2024/01/23 04:12:18;;;;;;;14.27;1.83;;;5.70;99.90;;;4.22;100.00;100449.34;4852449;28;20070;-83
2024/01/23 04:14:52;;;;;;;18.05;2.63;;;5.70;99.90;;;4.15;100.00;100466.03;4905997;28;20035;-81
2024/01/23 04:17:18;;;;;;;19.50;2.85;;;5.60;99.90;;;4.13;100.00;100473.03;4873674;28;20106;-83
2024/01/23 04:19:44;;;;;;;15.18;2.05;;;5.60;99.90;;;4.04;100.00;100470.63;4881354;29;20130;-83
2024/01/23 04:22:19;;;;;;;14.93;2.13;;;5.60;99.90;;;4.04;100.00;100474.09;4868187;29;20515;-83
2024/01/23 04:24:45;;;;;;;12.32;1.45;;;5.50;99.90;;;3.99;100.00;100472.50;4851706;28;20043;-82
2024/01/23 04:27:30;;;;;;;26.15;2.65;;;5.50;99.90;;;3.95;100.00;100469.09;4886716;29;20100;-83
2024/01/23 04:30:06;;;;;;;22.55;2.92;;;5.50;99.90;;;3.93;100.00;100476.13;4903073;29;20046;-82
2024/01/23 04:32:34;;;;;;;20.63;3.03;;;5.40;99.90;;;3.94;100.00;100475.22;4899953;28;20131;-83
2024/01/23 04:35:20;;;;;;;16.10;1.83;;;5.50;99.90;;;3.95;100.00;100497.75;4877967;28;20035;-83
2024/01/23 04:37:46;;;;;;;14.15;2.00;;;5.40;99.90;;;3.92;100.00;100490.00;4816497;29;20032;-83
2024/01/23 04:40:14;;;;;;;20.50;2.42;;;5.40;99.90;;;3.87;100.00;100492.72;4919404;28;20059;-83
2024/01/23 04:42:42;;;;;;;17.83;2.67;;;5.40;99.90;;;3.89;100.00;100501.38;4868312;28;20038;-83
2024/01/23 04:45:17;;;;;;;19.33;2.45;;;5.40;99.90;;;3.92;100.00;100518.66;4850942;28;20036;-82
2024/01/23 04:47:43;;;;;;;18.35;2.80;;;5.40;99.90;;;3.88;100.00;100510.06;4856696;28;20055;-82
2024/01/23 04:50:10;;;;;;;17.23;1.67;;;5.40;99.90;;;3.88;100.00;100506.59;4871464;29;20044;-81
2024/01/23 04:52:44;;;;;;;26.73;2.35;;;5.40;99.90;;;3.86;100.00;100511.84;4870771;28;20043;-82
2024/01/23 04:55:28;;;;;;;27.23;2.88;;;5.40;99.90;;;3.89;100.00;100511.78;4885685;28;20475;-83
2024/01/23 04:57:54;;;;;;;21.63;2.25;;;5.40;99.90;;;3.87;100.00;100529.19;4841463;29;20039;-83
2024/01/23 05:00:26;;;;;;;24.17;2.58;;;5.40;99.90;;;3.86;100.00;100530.06;4833984;29;20036;-83
2024/01/23 05:02:52;;;;;;;10.43;1.90;;;5.40;99.90;;;3.85;100.00;100533.59;4892787;28;20117;-82
2024/01/23 05:05:18;;;;;;;19.00;2.15;;;5.40;99.90;;;3.86;100.00;100524.88;4874715;29;20123;-82
2024/01/23 05:07:43;;;;;;;15.50;3.00;;;5.40;99.90;;;3.88;100.00;100520.47;4906952;28;20400;-82
2024/01/23 05:10:10;;;;;;;13.95;2.22;;;;;;;3.89;100.00;100527.41;4895357;28;20097;-83
2024/01/23 05:12:44;;;;;;;25.13;2.65;;;5.40;99.90;;;3.92;100.00;100536.06;4942306;28;20043;-82
2024/01/23 05:15:13;;;;;;;10.50;1.80;;;5.40;99.90;;;3.92;100.00;100536.06;4962737;28;20035;-83
2024/01/23 05:17:45;;;;;;;20.27;1.80;;;;;;;3.92;100.00;100538.66;4886631;28;20028;-84
2024/01/23 05:20:12;;;;;;;21.95;2.72;;;;;;;3.97;100.00;100555.03;4916259;28;20057;-84
2024/01/23 05:22:37;;;;;;;20.88;2.25;;;5.50;99.90;;;3.98;100.00;100533.31;4877116;29;20579;-82
2024/01/23 05:25:04;;;;;;;12.70;1.77;;;5.50;99.90;;;4.02;100.00;100542.78;4867686;28;20045;-84
2024/01/23 05:27:37;;;;;;;14.93;2.20;;;5.50;99.90;;;4.06;100.00;100549.59;4877108;28;20047;-83
2024/01/23 05:30:07;;;;;;;20.02;2.95;;;5.40;99.90;;;4.08;100.00;100560.84;4862117;28;20078;-84
2024/01/23 05:32:33;;;;;;;18.45;2.58;;;5.50;99.90;;;4.03;100.00;100560.13;4902936;28;20064;-83
2024/01/23 05:35:11;;;;;;;20.48;2.33;;;;;;;4.07;100.00;100556.56;4840946;29;20039;-83
2024/01/23 05:37:37;;;;;;;15.98;1.98;;;5.60;99.90;;;4.09;100.00;100566.03;4848294;29;20505;-81
2024/01/23 05:40:11;;;;;;;21.38;2.17;;;5.60;99.90;;;4.13;100.00;100571.19;4896903;29;20052;-82
2024/01/23 05:42:37;;;;;;;18.58;1.90;;;5.60;99.90;;;4.08;100.00;100579.97;4839629;28;20548;-83
2024/01/23 05:45:03;;;;;;;19.23;2.90;;;5.60;99.90;;;4.11;100.00;100571.22;4885157;28;20081;-83
2024/01/23 05:47:30;;;;;;;26.33;2.83;;;5.60;99.90;;;4.13;100.00;100577.25;4864003;28;20097;-82
2024/01/23 05:50:06;;;;;;;21.48;2.85;;;5.60;99.90;;;4.15;100.00;100585.91;4911320;28;20066;-83
2024/01/23 05:52:34;;;;;;;21.88;2.53;;;5.60;99.90;;;4.20;100.00;100604.03;4877669;28;20084;-84
2024/01/23 05:55:09;;;;;;;26.70;3.33;;;5.60;99.90;;;4.17;100.00;100581.53;4920980;28;20495;-83
2024/01/23 05:57:35;;;;;;;43.47;3.42;;;5.60;99.90;;;4.14;100.00;100594.59;4878127;28;20461;-82
2024/01/23 06:00:13;;;;;;;16.42;2.28;;;5.60;99.90;;;4.08;100.00;100581.69;4869861;29;20040;-83
2024/01/23 06:02:40;;;;;;;30.52;3.40;;;5.70;99.90;;;4.14;100.00;100597.22;4940082;28;20100;-83
2024/01/23 06:05:16;;;;;;;23.95;3.17;;;5.70;99.90;;;4.16;100.00;100590.22;4829031;29;20067;-83
2024/01/23 06:07:49;;;;;;;17.80;3.75;;;;;;;4.23;100.00;100596.16;4866201;28;20051;-83
2024/01/23 06:10:28;;;;;;;;;;;;;;;;;;;;;
2024/01/23 06:12:57;;;;;;;20.20;2.50;;;5.70;99.90;;;4.18;100.00;100596.25;4884749;29;20404;-83
2024/01/23 06:15:24;;;;;;;29.00;3.10;;;5.70;99.90;;;4.21;100.00;100588.38;4869929;28;20126;-83
2024/01/23 06:17:50;;;;;;;26.05;2.92;;;5.70;99.90;;;4.26;100.00;100598.69;4886129;28;20527;-83
2024/01/23 06:20:16;;;;;;;28.02;3.30;;;5.70;99.90;;;4.23;100.00;100593.53;4895005;28;20114;-82
2024/01/23 06:22:51;;;;;;;20.00;1.95;;;5.80;99.90;;;4.21;100.00;100598.81;4861954;29;20040;-83
2024/01/23 06:25:17;;;;;;;19.98;3.35;;;5.80;99.90;;;4.24;100.00;100601.34;4818327;29;20202;-81
2024/01/23 06:27:43;;;;;;;25.98;2.92;;;5.70;99.90;;;4.23;100.00;100597.03;4864139;28;20043;-82
2024/01/23 06:30:22;;;;;;;20.67;2.85;;;5.80;99.90;;;4.21;100.00;100598.81;4883582;29;20035;-83
2024/01/23 06:32:48;;;;;;;19.65;2.25;;;5.70;99.90;;;4.15;100.00;100596.34;4909765;28;20508;-82
2024/01/23 06:35:13;;;;;;;14.05;2.15;;;5.70;99.90;;;4.11;100.00;100612.91;4888881;28;20051;-83
2024/01/23 06:37:51;;;;;;;17.60;2.20;;;5.70;99.90;;;4.13;100.00;100615.50;4959617;28;20035;-84
2024/01/23 06:40:17;;;;;;;21.67;2.95;;;5.60;99.90;;;4.09;100.00;100612.94;4868482;29;20587;-82
2024/01/23 06:43:04;;;;;;;23.13;2.80;;;;;;;4.12;100.00;100622.44;4889227;29;20035;-82
2024/01/23 06:45:33;;;;;;;18.20;2.35;;;5.60;99.90;;;4.12;100.00;100632.88;4890603;28;20040;-82
2024/01/23 06:48:01;;;;;;;28.60;3.65;;;5.60;99.90;;;4.15;100.00;100631.94;4856268;28;20081;-83
2024/01/23 06:50:37;;;;;;;22.73;1.85;;;;;;;4.14;100.00;100635.44;4869430;28;20034;-83
2024/01/23 06:53:03;;;;;;;;;;;5.60;99.90;;;4.10;100.00;100625.09;4907482;28;20555;-82
2024/01/23 06:55:36;;;;;;;20.30;2.45;;;5.70;99.90;;;4.16;100.00;100639.72;4860138;28;19925;-83
2024/01/23 06:58:05;;;;;;;21.05;2.72;;;5.70;99.90;;;4.14;100.00;100630.22;4854063;28;20155;-83
2024/01/23 07:00:33;;;;;;;24.88;3.35;;;5.70;99.90;;;4.21;100.00;100637.91;4881377;28;20543;-83
2024/01/23 07:03:08;;;;;;;29.77;3.47;;;;;;;4.25;100.00;100646.50;4841243;29;20048;-83
2024/01/23 07:05:35;;;;;;;30.30;3.25;;;5.70;99.90;;;4.27;100.00;100648.16;4911709;28;20054;-82
2024/01/23 07:08:11;;;;;;;17.73;2.20;;;;;;;4.25;100.00;100664.72;4908757;28;20098;-81
2024/01/23 07:10:37;;;;;;;;;;;5.80;99.90;;;4.24;100.00;100658.66;4891652;28;20123;-83
2024/01/23 07:13:03;;;;;;;27.77;3.80;;;;;;;4.23;100.00;100663.91;4857081;29;19984;-83
2024/01/23 07:15:38;;;;;;;26.13;3.50;;;5.70;99.90;;;4.23;100.00;100661.31;4856025;28;20035;-82
2024/01/23 07:18:04;;;;;;;14.00;3.42;;;5.70;99.90;;;4.19;100.00;100654.44;4870046;29;20067;-82
2024/01/23 07:20:33;;;;;;;20.60;2.70;;;;;;;4.17;100.00;100671.84;4865352;29;20062;-83
2024/01/23 07:23:07;;;;;;;41.80;3.90;;;;;;;4.25;100.00;100673.41;4839036;28;20039;-83
2024/01/23 07:25:35;;;;;;;19.38;2.15;;;;;;;4.28;100.00;100677.72;4872705;28;20042;-83
2024/01/23 07:28:17;;;;;;;25.02;2.53;;;5.80;99.90;;;4.33;100.00;100686.28;4839806;28;20107;-84
2024/01/23 07:30:56;;;;;;;21.63;2.88;;;;;;;4.32;100.00;100672.41;4876154;29;20043;-83
2024/01/23 07:33:22;;;;;;;23.23;3.60;;;5.80;99.90;;;4.28;100.00;100675.97;4894343;28;20045;-83
2024/01/23 07:35:56;;;;;;;20.75;2.22;;;5.80;99.90;;;4.27;100.00;100674.22;4923156;28;20038;-83
2024/01/23 07:38:24;;;;;;;17.83;2.50;;;5.80;99.90;;;4.26;100.00;100675.13;4855603;29;20041;-83
2024/01/23 07:40:58;;;;;;;25.50;2.60;;;5.80;99.90;;;4.32;100.00;100677.63;4868603;29;20138;-83
2024/01/23 07:43:26;;;;;;;21.45;2.58;;;5.90;99.90;;;4.36;100.00;100673.19;4855879;29;20450;-83
2024/01/23 07:46:25;;;;;;;16.70;2.50;;;5.80;99.90;;;4.32;100.00;100682.81;4864217;29;20035;-83
2024/01/23 07:49:18;;;;;;;31.70;3.17;;;6.30;99.90;;;4.37;100.00;100681.88;4799253;29;20073;-84
2024/01/23 07:52:31;;;;;;;25.00;3.20;;;5.90;99.90;;;4.41;100.00;100687.00;4805830;29;20044;-82
2024/01/23 07:54:58;;;;;;;23.42;2.70;;;6.00;99.90;;;4.44;100.00;100686.06;4801412;29;20049;-82
2024/01/23 07:58:02;;;;;;;;;;;;;;;;;;;;;
2024/01/23 08:00:31;;;;;;;33.13;2.75;;;6.00;99.90;;;4.47;100.00;100696.41;4812846;29;20202;-83
2024/01/23 08:02:57;;;;;;;25.73;3.08;;;6.00;99.90;;;4.55;100.00;100704.91;4772562;29;21574;-83
2024/01/23 08:05:30;;;;;;;27.95;3.25;;;6.00;99.90;;;4.59;100.00;100710.94;4789003;29;20082;-83
2024/01/23 08:08:00;;;;;;;32.03;4.07;;;6.10;99.90;;;4.59;100.00;100706.56;4800095;29;20052;-83
2024/01/23 08:10:26;;;;;;;22.80;3.67;;;;;;;4.61;100.00;100716.97;4770539;29;20038;-83
2024/01/23 08:13:00;;;;;;;23.00;3.42;;;6.10;99.90;;;4.59;100.00;100717.00;4808221;29;20093;-82
2024/01/23 08:15:26;;;;;;;30.83;2.92;;;6.10;99.90;;;4.63;100.00;100729.09;4815013;29;20809;-82
2024/01/23 08:17:55;;;;;;;32.47;3.63;;;6.20;99.90;;;4.68;100.00;100732.44;4765839;29;20042;-83
2024/01/23 08:20:27;;;;;;;27.40;4.18;;;;;;;4.71;100.00;100731.53;4790156;29;20034;-83
2024/01/23 08:22:53;;;;;;;27.58;3.85;;;6.20;99.90;;;4.72;100.00;100739.31;4780544;29;20461;-84
2024/01/23 08:25:19;;;;;;;29.95;3.35;;;;;;;4.75;100.00;100745.34;4936653;23;20051;-82
2024/01/23 08:28:27;;;;;;;;;;;;;;;;;;;;;
2024/01/23 08:31:02;;;;;;;19.98;2.72;;;6.20;99.90;;;4.75;100.00;100753.19;4919596;28;20036;-85
2024/01/23 08:33:44;;;;;;;12.30;1.95;;;6.30;99.90;;;4.79;100.00;100770.47;4908367;28;20042;-83
2024/01/23 08:36:26;;;;;;;24.38;3.28;;;6.30;99.90;;;4.75;100.00;100767.06;4937884;28;20078;-87
2024/01/23 08:38:54;;;;;;;14.20;2.28;;;6.30;99.90;;;4.72;100.00;100762.78;4919369;28;20046;-81
2024/01/23 08:41:33;;;;;;;19.20;2.53;;;6.30;99.90;;;4.77;100.00;100777.47;4919307;28;20118;-82
2024/01/23 08:43:59;;;;;;;26.10;3.50;;;6.30;99.90;;;4.76;100.00;100794.03;4907208;23;20036;-82
2024/01/23 08:46:25;;;;;;;12.23;2.35;;;6.30;99.90;;;4.81;100.00;100797.41;4889667;28;20118;-81
2024/01/23 08:49:06;;;;;;;25.45;2.40;;;6.30;99.90;;;4.84;100.00;100789.53;4845244;29;20040;-83
2024/01/23 08:51:55;;;;;;;20.90;2.50;;;6.30;99.90;;;4.82;100.00;100792.16;4887578;28;20088;-83
2024/01/23 08:54:23;;;;;;;19.95;2.35;;;6.30;99.90;;;4.79;100.00;100804.41;4883830;28;20040;-81
2024/01/23 08:56:59;;;;;;;;;;;;;;;;;;;;;
2024/01/23 08:59:28;;;;;;;16.30;2.58;;;;;;;4.80;100.00;100822.63;4894311;28;20511;-81
2024/01/23 09:01:55;;;;;;;19.80;2.75;;;6.30;99.90;;;4.83;100.00;100829.53;4913863;28;20046;-83
2024/01/23 09:04:35;;;;;;;21.15;2.55;;;6.30;99.90;;;4.81;100.00;100831.31;4868329;29;20551;-83
2024/01/23 09:07:08;;;;;;;20.50;3.13;;;;;;;4.86;100.00;100853.81;4909061;28;20051;-82
2024/01/23 09:09:33;;;;;;;27.58;2.90;;;6.30;99.90;;;4.86;100.00;100847.72;4923438;28;20094;-83
2024/01/23 09:12:01;;;;;;;22.48;3.15;;;6.30;99.90;;;4.87;100.00;100867.72;4903738;28;20100;-86
2024/01/23 09:14:27;;;;;;;21.67;2.70;;;6.40;99.90;;;4.91;100.00;100862.41;4925065;28;20127;-85
2024/01/23 09:17:04;;;;;;;27.33;2.95;;;6.40;99.90;;;4.89;100.00;100871.16;4934500;28;20118;-82
2024/01/23 09:19:37;;;;;;;29.20;2.97;;;6.30;99.90;;;4.91;100.00;100877.22;4876777;28;20049;-83
2024/01/23 09:22:06;;;;;;;27.33;3.63;;;6.40;99.90;;;4.92;100.00;100890.22;4949947;28;20042;-83
2024/01/23 09:24:35;;;;;;;15.88;2.70;;;6.50;99.90;;;5.03;100.00;100908.28;4903056;28;20136;-83
2024/01/23 09:27:10;;;;;;;29.30;3.72;;;6.50;99.90;;;5.13;100.00;100901.09;4878969;28;20110;-83
2024/01/23 09:29:37;;;;;;;33.07;3.93;;;6.60;99.90;;;5.19;100.00;100905.34;4902738;28;20036;-83
2024/01/23 09:32:04;;;;;;;22.98;3.08;;;6.70;99.90;;;5.29;100.00;100912.94;4931435;28;20042;-84
2024/01/23 09:34:54;;;;;;;28.75;3.97;;;6.70;99.90;;;5.29;100.00;100928.59;4929283;28;20091;-83
2024/01/23 09:37:32;;;;;;;;;;;;;;;;;;;;;
2024/01/23 09:40:17;;;;;;;32.33;4.63;;;6.80;99.90;;;5.34;100.00;100928.50;4806515;29;20649;-82
2024/01/23 09:42:54;;;;;;;24.40;3.40;;;6.80;99.90;;;5.36;100.00;100934.56;4814887;29;20514;-84
2024/01/23 09:45:50;;;;;;;31.20;3.35;;;6.80;99.90;;;5.39;100.00;100942.31;4803658;29;20096;-82
2024/01/23 09:48:17;;;;;;;27.55;3.97;;;6.80;99.90;;;5.36;100.00;100929.31;4835759;29;20080;-82
2024/01/23 09:50:55;;;;;;;32.45;4.50;;;6.80;99.90;;;5.44;100.00;100937.84;4825336;29;20045;-83
2024/01/23 09:53:54;;;;;;;34.38;4.00;;;6.90;99.90;;;5.42;100.00;100939.66;4811184;29;20047;-84
2024/01/23 09:56:30;;;;;;;33.75;4.00;;;6.90;99.90;;;5.50;100.00;100953.38;4850239;29;20503;-83
2024/01/23 09:58:56;;;;;;;;;;;7.00;99.90;;;5.52;100.00;100959.41;4803352;29;20131;-83
2024/01/23 10:01:35;;;;;;;;;;;7.00;99.90;;;5.41;100.00;100964.03;4805711;29;19949;-83
2024/01/23 10:04:35;;;;;;;36.13;5.15;;;7.00;99.90;;;5.48;100.00;100963.00;4837148;29;20299;-82
2024/01/23 10:07:10;;;;;;;38.50;5.30;;;7.00;99.90;;;5.52;100.00;100974.25;4805374;29;20102;-82
2024/01/23 10:09:38;;;;;;;48.70;6.15;;;7.00;99.90;;;5.62;100.00;100969.69;4772010;29;20101;-82
2024/01/23 10:12:04;;;;;;;50.10;5.30;;;7.10;99.90;;;5.68;100.00;100970.41;4788221;29;20138;-83
2024/01/23 10:15:07;;;;;;;43.70;5.78;;;7.20;99.90;;;5.80;100.00;100977.09;4770216;29;20050;-83
2024/01/23 10:17:36;;;;;;;44.90;5.05;;;;;;;5.88;100.00;100987.38;4822862;29;20210;-84
2024/01/23 10:20:17;;;;;;;45.67;5.38;;;7.30;99.90;;;5.94;100.00;100979.41;4848952;29;20044;-83
2024/01/23 10:22:58;;;;;;;52.80;7.97;;;7.40;99.90;;;5.96;100.00;100990.69;4845320;29;20048;-83
2024/01/23 10:25:38;;;;;;;58.47;6.70;;;7.40;99.90;;;5.98;100.00;100995.91;4822309;29;20052;-83
2024/01/23 10:28:16;;;;;;;45.03;6.15;;;7.40;99.90;;;5.92;100.00;100996.88;4858489;29;20036;-84
2024/01/23 10:30:56;;;;;;;40.75;5.38;;;7.40;99.90;;;5.85;100.00;100998.78;4890133;29;20046;-84
2024/01/23 10:33:22;;;;;;;57.08;5.72;;;7.30;99.90;;;5.81;100.00;101014.53;4884037;29;20528;-83
2024/01/23 10:35:55;;;;;;;47.80;5.07;;;7.30;99.90;;;5.86;100.00;101016.16;4901178;29;20079;-82
2024/01/23 10:38:49;;;;;;;;;;;;;;;;;;;;;
2024/01/23 10:41:18;;;;;;;41.63;5.22;;;7.30;99.90;;;5.83;100.00;101028.44;4815033;29;20864;-81
2024/01/23 10:43:47;;;;;;;51.42;6.63;;;7.30;99.90;;;5.86;100.00;101020.53;4869337;28;20042;-82
2024/01/23 10:46:23;;;;;;;56.40;7.15;;;7.30;99.90;;;5.86;100.00;101031.00;4897516;29;20107;-82
2024/01/23 10:48:49;;;;;;;44.17;4.65;;;7.30;99.90;;;5.85;100.00;101031.88;4884266;28;20141;-82
2024/01/23 10:51:43;;;;;;;70.70;7.35;;;7.30;99.90;;;5.82;100.00;101047.63;4890172;28;20035;-82
2024/01/23 10:54:26;;;;;;;53.58;5.95;;;7.30;99.90;;;5.71;100.00;101056.56;4844836;29;20078;-82
2024/01/23 10:57:07;;;;;;;49.90;5.93;;;7.30;99.90;;;5.79;100.00;101056.41;4880961;29;20048;-82